createdAt,value
2017-10-20T09:10:08.585Z,25.23
2017-10-20T09:12:36.131Z,26.70
2017-10-20T09:15:13.821Z,27.85
2017-10-20T09:17:42.382Z,26.95
2017-10-20T09:20:11.414Z,27.08
2017-10-20T09:22:39.270Z,23.87
2017-10-20T09:25:06.826Z,27.52
2017-10-20T09:27:37.873Z,28.33
2017-10-20T09:36:03.975Z,25.27
2017-10-20T09:38:52.395Z,25.60
2017-10-20T09:41:24.801Z,25.30
2017-10-20T09:44:17.652Z,23.98
2017-10-20T09:46:53.643Z,28.08
2017-10-20T09:52:03.807Z,26.55
2017-10-20T09:54:35.816Z,26.42
2017-10-20T09:57:04.084Z,27.20
2017-10-20T09:59:33.231Z,27.60
2017-10-20T10:02:22.937Z,30.95
2017-10-20T10:04:54.310Z,29.35
2017-10-20T10:07:23.759Z,26.35
2017-10-20T10:09:57.334Z,28.75
2017-10-20T10:12:25.397Z,28.38
2017-10-20T10:14:53.775Z,24.65
2017-10-20T10:17:22.539Z,30.83
2017-10-20T10:19:50.986Z,29.05
2017-10-20T10:22:21.988Z,29.15
2017-10-20T10:24:49.858Z,25.40
2017-10-20T10:27:17.490Z,27.35
2017-10-20T10:29:46.191Z,25.27
2017-10-20T10:32:15.920Z,34.92
2017-10-20T10:34:44.008Z,26.75
2017-10-20T10:37:13.186Z,26.60
2017-10-20T10:39:40.831Z,29.37
2017-10-20T10:42:09.483Z,27.55
2017-10-20T10:44:37.239Z,26.02
2017-10-20T10:49:55.140Z,26.42
2017-10-20T10:52:23.165Z,28.90
2017-10-20T10:54:50.762Z,28.58
2017-10-20T10:57:21.810Z,28.45
2017-10-20T10:59:49.524Z,28.70
2017-10-20T11:02:17.174Z,30.50
2017-10-20T11:04:44.927Z,27.77
2017-10-20T11:07:24.227Z,29.33
2017-10-20T11:10:03.675Z,29.83
2017-10-20T11:12:40.075Z,32.67
2017-10-20T11:15:07.820Z,31.87
2017-10-20T11:17:35.472Z,33.45
2017-10-20T11:20:03.441Z,28.90
2017-10-20T11:22:31.004Z,31.48
2017-10-20T11:24:58.550Z,28.62
2017-10-20T11:27:26.102Z,30.95
2017-10-20T11:29:53.820Z,30.48
2017-10-20T11:32:23.684Z,31.65
2017-10-20T11:34:53.938Z,31.92
2017-10-20T11:37:22.004Z,29.87
2017-10-20T11:39:49.624Z,31.67
2017-10-20T11:42:17.327Z,29.12
2017-10-20T11:44:44.828Z,30.98
2017-10-20T11:47:12.367Z,30.92
2017-10-20T11:49:39.927Z,28.95
2017-10-20T11:52:07.527Z,28.17
2017-10-20T11:54:35.071Z,31.15
2017-10-20T11:57:03.518Z,30.10
2017-10-20T11:59:31.083Z,28.40
2017-10-20T12:01:58.615Z,29.45
2017-10-20T12:04:26.743Z,27.90
2017-10-20T12:06:55.150Z,25.88
2017-10-20T12:09:31.269Z,29.83
2017-10-20T12:12:00.103Z,27.95
2017-10-20T12:14:30.550Z,25.70
2017-10-20T12:16:58.322Z,25.55
2017-10-20T12:19:26.004Z,29.12
2017-10-20T12:21:54.426Z,25.88
2017-10-20T12:24:22.263Z,26.77
2017-10-20T12:26:52.655Z,24.83
2017-10-20T12:29:20.587Z,22.17
2017-10-20T12:31:49.301Z,24.17
2017-10-20T12:34:17.096Z,23.92
2017-10-20T12:36:45.187Z,23.33
2017-10-20T12:39:13.143Z,21.65
2017-10-20T12:41:41.640Z,21.10
2017-10-20T12:44:09.318Z,20.45
2017-10-20T12:46:37.141Z,19.52
2017-10-20T12:49:06.801Z,20.58
2017-10-20T12:51:45.574Z,21.83
2017-10-20T12:54:19.785Z,19.65
2017-10-20T12:56:47.368Z,22.33
2017-10-20T12:59:14.997Z,20.42
2017-10-20T13:01:42.696Z,22.55
2017-10-20T13:04:11.326Z,20.35
2017-10-20T13:06:39.037Z,19.95
2017-10-20T13:09:06.778Z,19.42
2017-10-20T13:11:41.419Z,18.15
2017-10-20T13:14:09.609Z,18.20
2017-10-20T13:19:15.749Z,17.15
2017-10-20T13:21:45.086Z,16.65
2017-10-20T13:24:12.649Z,17.58
2017-10-20T13:26:40.389Z,17.48
2017-10-20T13:29:08.027Z,18.70
2017-10-20T13:31:35.631Z,15.80
2017-10-20T13:34:03.774Z,18.90
2017-10-20T13:36:31.359Z,19.00
2017-10-20T13:39:25.251Z,18.48
2017-10-20T13:41:52.808Z,15.23
2017-10-20T13:44:20.336Z,18.25
2017-10-20T13:46:47.994Z,15.60
2017-10-20T13:49:15.580Z,16.52
2017-10-20T13:51:45.319Z,14.52
2017-10-20T13:54:12.826Z,16.00
2017-10-20T13:56:41.596Z,14.40
2017-10-20T13:59:09.192Z,15.68
2017-10-20T14:01:37.420Z,16.00
2017-10-20T14:04:06.089Z,14.57
2017-10-20T14:06:33.891Z,16.05
2017-10-20T14:09:01.720Z,15.80
2017-10-20T14:11:30.439Z,14.50
2017-10-20T14:13:58.116Z,16.67
2017-10-20T14:16:26.093Z,16.98
2017-10-20T14:18:53.841Z,15.82
2017-10-20T14:22:00.253Z,16.00
2017-10-20T14:24:29.872Z,15.95
2017-10-20T14:26:59.870Z,22.67
2017-10-20T14:29:35.098Z,16.20
2017-10-20T14:32:02.853Z,15.65
2017-10-20T14:34:30.690Z,17.95
2017-10-20T14:36:59.512Z,17.75
2017-10-20T14:39:27.524Z,16.98
2017-10-20T14:41:55.671Z,17.48
2017-10-20T14:44:43.827Z,20.70
2017-10-20T14:47:14.431Z,17.48
2017-10-20T14:49:43.397Z,17.10
2017-10-20T14:52:11.500Z,17.95
2017-10-20T14:54:39.334Z,16.95
2017-10-20T14:57:09.171Z,17.12
2017-10-20T15:00:16.898Z,15.63
2017-10-20T15:02:47.292Z,16.70
2017-10-20T15:05:19.570Z,15.95
2017-10-20T15:07:48.776Z,16.20
2017-10-20T15:10:23.755Z,16.27
2017-10-20T15:13:05.691Z,18.08
2017-10-20T15:15:35.469Z,14.75
2017-10-20T15:18:03.488Z,16.12
2017-10-20T15:20:36.982Z,15.85
2017-10-20T15:23:06.571Z,15.95
2017-10-20T15:25:35.249Z,14.57
2017-10-20T15:28:02.788Z,16.12
2017-10-20T15:30:30.491Z,14.82
2017-10-20T15:32:58.053Z,15.98
2017-10-20T15:35:25.872Z,14.23
2017-10-20T15:37:53.490Z,13.48
2017-10-20T15:40:21.132Z,13.27
2017-10-20T15:42:48.815Z,13.32
2017-10-20T15:45:17.255Z,13.38
2017-10-20T15:47:46.670Z,13.57
2017-10-20T15:50:14.454Z,14.25
2017-10-20T15:52:42.204Z,13.48
2017-10-20T15:55:09.983Z,12.57
2017-10-20T15:57:37.620Z,16.95
2017-10-20T16:00:05.307Z,13.98
2017-10-20T16:02:39.220Z,18.20
2017-10-20T16:05:06.938Z,13.82
2017-10-20T16:07:34.795Z,13.05
2017-10-20T16:10:02.665Z,13.52
2017-10-20T16:12:30.362Z,14.57
2017-10-20T16:15:01.103Z,13.57
2017-10-20T16:17:28.726Z,15.07
2017-10-20T16:19:56.525Z,12.95
2017-10-20T16:22:26.221Z,12.82
2017-10-20T16:24:54.459Z,13.90
2017-10-20T16:51:31.760Z,17.10
2017-10-20T16:54:02.708Z,17.80
2017-10-20T16:56:35.090Z,19.67
2017-10-20T17:12:56.995Z,16.65
2017-10-20T17:15:24.643Z,19.23
2017-10-20T17:17:56.297Z,16.85
2017-10-20T17:20:24.677Z,18.95
2017-10-20T17:22:55.103Z,17.90
2017-10-20T17:25:27.668Z,18.35
2017-10-20T17:27:55.627Z,19.95
2017-10-20T17:30:23.969Z,19.85
2017-10-20T17:32:55.160Z,21.60
2017-10-20T17:35:39.471Z,19.33
2017-10-20T17:38:09.720Z,19.02
2017-10-20T17:40:41.119Z,21.20
2017-10-20T17:43:29.544Z,19.60
2017-10-20T17:58:54.073Z,21.12
2017-10-20T18:01:22.756Z,21.83
2017-10-20T18:03:51.549Z,21.00
2017-10-20T18:06:23.505Z,22.30
2017-10-20T18:08:51.407Z,21.67
2017-10-20T18:11:29.019Z,26.48
2017-10-20T18:14:16.008Z,22.05
2017-10-20T18:16:49.101Z,22.35
2017-10-20T18:19:16.959Z,20.67
2017-10-20T18:21:54.140Z,21.92
2017-10-20T18:24:22.230Z,23.40
2017-10-20T18:26:49.810Z,20.88
2017-10-20T18:29:21.785Z,18.50
2017-10-20T18:31:50.033Z,18.05
2017-10-20T18:34:17.884Z,17.08
2017-10-20T18:39:35.557Z,17.85
2017-10-20T18:42:03.126Z,18.48
2017-10-20T18:44:32.834Z,19.80
2017-10-20T18:47:01.865Z,20.42
2017-10-20T18:49:32.546Z,20.77
2017-10-20T18:52:02.633Z,22.50
2017-10-20T19:00:15.679Z,22.92
2017-10-20T19:02:43.572Z,19.87
2017-10-20T19:05:11.873Z,21.73
2017-10-20T19:07:39.426Z,22.05
2017-10-20T19:10:08.584Z,21.92
2017-10-20T19:12:37.612Z,18.85
2017-10-20T19:15:05.416Z,18.30
2017-10-20T19:17:33.095Z,17.50
2017-10-20T19:20:00.695Z,17.75
2017-10-20T19:22:28.384Z,16.80
2017-10-20T19:24:56.012Z,18.08
2017-10-20T19:27:24.415Z,16.73
2017-10-20T19:29:56.467Z,16.05
2017-10-20T19:32:25.257Z,16.37
2017-10-20T19:34:53.011Z,16.75
2017-10-20T19:37:20.733Z,16.85
2017-10-20T19:39:49.482Z,18.10
2017-10-20T19:43:22.740Z,16.37
2017-10-20T19:45:57.814Z,15.73
2017-10-20T19:48:25.573Z,14.98
2017-10-20T19:51:16.304Z,14.55
2017-10-20T19:53:55.280Z,18.15
2017-10-20T19:56:41.298Z,15.27
2017-10-20T19:59:13.197Z,12.73
2017-10-20T20:01:56.155Z,12.57
2017-10-20T20:04:31.705Z,12.70
2017-10-20T20:06:59.344Z,12.37
2017-10-20T20:09:33.167Z,12.15
2017-10-20T20:12:01.730Z,12.02
2017-10-20T20:14:36.178Z,11.88
2017-10-20T20:17:15.068Z,11.60
2017-10-20T20:19:42.649Z,10.82
2017-10-20T20:22:11.296Z,10.70
2017-10-20T20:24:39.000Z,10.13
2017-10-20T20:27:07.290Z,12.05
2017-10-20T20:29:34.820Z,11.50
2017-10-20T20:32:16.611Z,11.95
2017-10-20T20:34:44.517Z,13.85
2017-10-20T20:37:12.459Z,11.25
2017-10-20T20:39:41.417Z,11.02
2017-10-20T20:42:11.244Z,11.85
2017-10-20T20:44:38.900Z,11.27
2017-10-20T20:47:07.942Z,13.10
2017-10-20T20:49:38.035Z,12.77
2017-10-20T20:52:06.858Z,13.50
2017-10-20T20:54:42.503Z,14.07
2017-10-20T20:57:15.377Z,15.05
2017-10-20T20:59:52.167Z,13.13
2017-10-20T21:02:38.569Z,12.02
2017-10-20T21:07:53.360Z,13.40
2017-10-20T21:13:45.904Z,14.35
2017-10-20T21:16:23.604Z,13.90
2017-10-20T21:18:53.114Z,14.63
2017-10-20T21:24:04.025Z,17.67
2017-10-20T21:26:32.996Z,17.23
2017-10-20T21:29:06.928Z,13.43
2017-10-20T21:31:57.576Z,14.45
2017-10-20T21:37:07.900Z,14.32
2017-10-20T21:39:35.939Z,16.42
2017-10-20T21:42:07.767Z,14.00
2017-10-20T21:44:36.189Z,14.57
2017-10-20T21:47:04.153Z,15.27
2017-10-20T21:49:33.631Z,15.25
2017-10-20T21:52:12.582Z,15.57
2017-10-20T21:54:40.760Z,15.55
2017-10-20T21:57:14.878Z,15.63
2017-10-20T22:02:24.668Z,17.23
2017-10-20T22:04:52.345Z,20.27
2017-10-20T22:07:25.025Z,17.12
2017-10-20T22:12:42.387Z,14.35
2017-10-20T22:15:09.953Z,17.75
2017-10-20T22:17:37.576Z,16.17
2017-10-20T22:20:11.245Z,15.98
2017-10-20T22:22:41.116Z,15.40
2017-10-20T22:25:08.689Z,18.00
2017-10-20T22:27:39.080Z,14.77
2017-10-20T22:30:06.732Z,15.52
2017-10-20T22:32:35.160Z,15.07
2017-10-20T22:35:02.873Z,15.75
2017-10-20T22:37:30.541Z,16.08
2017-10-20T22:39:59.263Z,20.95
2017-10-20T22:42:35.622Z,15.63
2017-10-20T22:45:04.302Z,15.20
2017-10-20T22:47:34.375Z,14.05
2017-10-20T22:50:03.843Z,15.50
2017-10-20T22:52:42.927Z,18.12
2017-10-20T22:55:26.366Z,14.52
2017-10-20T22:57:54.251Z,14.27
2017-10-20T23:00:26.766Z,13.13
2017-10-20T23:02:55.969Z,12.90
2017-10-20T23:05:28.821Z,15.18
2017-10-20T23:08:00.489Z,13.88
2017-10-20T23:10:28.360Z,19.95
2017-10-20T23:12:57.021Z,13.07
2017-10-20T23:15:24.671Z,16.45
2017-10-20T23:17:58.332Z,16.55
2017-10-20T23:20:27.593Z,13.68
2017-10-20T23:23:00.901Z,16.30
2017-10-20T23:25:35.875Z,15.00
2017-10-20T23:28:03.585Z,13.88
2017-10-20T23:30:31.879Z,14.87
2017-10-20T23:32:59.375Z,16.37
2017-10-20T23:35:26.856Z,13.13
2017-10-20T23:37:54.340Z,14.40
2017-10-20T23:40:22.650Z,17.30
2017-10-20T23:42:50.307Z,11.18
2017-10-20T23:45:21.597Z,12.18
2017-10-20T23:47:50.181Z,9.25
2017-10-20T23:50:18.090Z,10.57
2017-10-20T23:52:45.636Z,14.77
2017-10-20T23:55:17.368Z,15.48
2017-10-20T23:57:46.081Z,11.05
